createdAt,value
2023-04-30T00:00:58.553Z,8.45
2023-04-30T00:02:01.338Z,9.40
2023-04-30T00:03:04.239Z,9.90
2023-04-30T00:04:07.142Z,10.68
2023-04-30T00:05:10.513Z,8.70
2023-04-30T00:06:13.246Z,12.13
2023-04-30T00:07:15.013Z,10.23
2023-04-30T00:08:17.702Z,9.43
2023-04-30T00:09:19.573Z,11.60
2023-04-30T00:10:22.191Z,9.43
2023-04-30T00:11:25.560Z,10.65
2023-04-30T00:12:28.260Z,12.48
2023-04-30T00:13:29.947Z,11.85
2023-04-30T00:14:32.632Z,10.88
2023-04-30T00:15:34.411Z,12.52
2023-04-30T00:16:37.180Z,12.18
2023-04-30T00:17:38.935Z,11.50
2023-04-30T00:18:41.611Z,10.63
2023-04-30T00:19:43.337Z,10.43
2023-04-30T00:20:47.405Z,16.80
2023-04-30T00:21:49.364Z,9.95
2023-04-30T00:22:52.083Z,9.27
2023-04-30T00:23:53.770Z,12.15
2023-04-30T00:24:56.444Z,11.95
2023-04-30T00:25:58.115Z,11.52
2023-04-30T00:27:00.863Z,10.52
2023-04-30T00:28:04.190Z,11.00
2023-04-30T00:29:06.923Z,9.88
2023-04-30T00:30:09.118Z,8.82
2023-04-30T00:31:11.776Z,10.23
2023-04-30T00:32:13.534Z,8.60
2023-04-30T00:33:16.279Z,10.23
2023-04-30T00:34:17.996Z,10.63
2023-04-30T00:35:20.777Z,10.15
2023-04-30T00:36:23.811Z,12.07
2023-04-30T00:37:26.445Z,9.57
2023-04-30T00:38:28.167Z,9.98
2023-04-30T00:39:30.832Z,11.32
2023-04-30T00:40:34.329Z,12.85
2023-04-30T00:41:37.270Z,12.45
2023-04-30T00:42:39.008Z,9.27
2023-04-30T00:43:41.670Z,12.90
2023-04-30T00:44:43.374Z,9.38
2023-04-30T00:45:46.039Z,11.65
2023-04-30T00:46:47.847Z,11.20
2023-04-30T00:47:50.946Z,9.52
2023-04-30T00:48:52.796Z,9.75
2023-04-30T00:49:55.812Z,10.60
2023-04-30T00:50:57.961Z,11.02
2023-04-30T00:52:02.039Z,9.50
2023-04-30T00:53:03.847Z,11.55
2023-04-30T00:54:06.569Z,9.98
2023-04-30T00:55:09.289Z,9.63
2023-04-30T00:56:12.049Z,11.00
2023-04-30T00:57:14.132Z,8.55
2023-04-30T00:58:16.812Z,11.00
2023-04-30T00:59:18.583Z,9.38
2023-04-30T01:00:21.356Z,11.02
2023-04-30T01:01:24.083Z,11.43
2023-04-30T01:02:26.911Z,9.15
2023-04-30T01:03:28.889Z,9.70
2023-04-30T01:04:33.019Z,11.50
2023-04-30T01:05:34.717Z,12.63
2023-04-30T01:06:37.697Z,10.90
2023-04-30T01:07:45.059Z,11.70
2023-04-30T01:08:48.290Z,13.13
2023-04-30T01:09:50.117Z,10.70
2023-04-30T01:10:56.248Z,9.07
2023-04-30T01:12:05.790Z,12.57
2023-04-30T01:13:11.559Z,10.63
2023-04-30T01:14:18.590Z,11.43
2023-04-30T01:15:26.174Z,11.75
2023-04-30T01:16:30.217Z,10.65
2023-04-30T01:17:36.199Z,10.45
2023-04-30T01:18:41.961Z,11.90
2023-04-30T01:19:46.738Z,12.38
2023-04-30T01:20:49.918Z,9.85
2023-04-30T01:21:52.824Z,10.70
2023-04-30T01:23:07.446Z,14.90
2023-04-30T01:24:43.373Z,10.98
2023-04-30T01:25:55.086Z,10.80
2023-04-30T01:27:05.047Z,11.55
2023-04-30T01:28:10.389Z,13.57
2023-04-30T01:29:13.064Z,12.85
2023-04-30T01:30:16.916Z,9.05
2023-04-30T01:31:19.605Z,10.52
2023-04-30T01:32:22.372Z,13.30
2023-04-30T01:33:24.182Z,13.43
2023-04-30T01:34:26.870Z,11.30
2023-04-30T01:35:40.110Z,11.00
2023-04-30T01:36:52.109Z,9.13
2023-04-30T01:38:04.042Z,10.43
2023-04-30T01:39:18.149Z,11.90
2023-04-30T01:40:24.607Z,12.73
2023-04-30T01:41:32.184Z,11.32
2023-04-30T01:42:38.351Z,10.93
2023-04-30T01:43:50.043Z,11.93
2023-04-30T01:45:14.561Z,11.38
2023-04-30T01:46:21.324Z,9.57
2023-04-30T01:47:30.967Z,10.18
2023-04-30T01:48:41.591Z,14.45
2023-04-30T01:49:48.289Z,11.30
2023-04-30T01:50:53.305Z,11.65
2023-04-30T01:52:01.389Z,13.15
2023-04-30T01:53:07.453Z,11.32
2023-04-30T01:54:21.615Z,13.15
2023-04-30T01:55:29.593Z,17.27
2023-04-30T01:56:32.894Z,12.38
2023-04-30T01:57:40.150Z,11.18
2023-04-30T01:58:43.643Z,9.93
2023-04-30T01:59:46.941Z,13.90
2023-04-30T02:00:48.664Z,11.48
2023-04-30T02:01:51.428Z,13.38
2023-04-30T02:02:53.313Z,12.52
2023-04-30T02:03:56.272Z,11.98
2023-04-30T02:04:57.958Z,13.63
2023-04-30T02:06:00.671Z,13.77
2023-04-30T02:07:03.550Z,13.48
2023-04-30T02:08:07.111Z,12.13
2023-04-30T02:09:10.569Z,15.73
2023-04-30T02:10:13.438Z,13.07
2023-04-30T02:11:15.087Z,16.73
2023-04-30T02:12:17.798Z,12.40
2023-04-30T02:13:19.475Z,11.65
2023-04-30T02:14:23.502Z,15.45
2023-04-30T02:15:25.203Z,12.25
2023-04-30T02:16:27.933Z,12.73
2023-04-30T02:17:29.668Z,15.02
2023-04-30T02:18:32.381Z,12.60
2023-04-30T02:19:34.096Z,12.07
2023-04-30T02:20:36.883Z,11.82
2023-04-30T02:21:38.604Z,18.77
2023-04-30T02:22:41.428Z,15.07
2023-04-30T02:23:43.164Z,11.02
2023-04-30T02:24:46.046Z,15.82
2023-04-30T02:25:47.806Z,15.40
2023-04-30T02:26:50.473Z,17.52
2023-04-30T02:27:52.191Z,14.38
2023-04-30T02:28:54.876Z,14.73
2023-04-30T02:29:58.073Z,13.73
2023-04-30T02:31:00.845Z,14.35
2023-04-30T02:32:02.575Z,13.40
2023-04-30T02:33:05.476Z,15.68
2023-04-30T02:34:07.169Z,12.32
2023-04-30T02:35:10.635Z,11.73
2023-04-30T02:36:12.317Z,18.08
2023-04-30T02:37:15.179Z,18.73
2023-04-30T02:38:16.943Z,15.32
2023-04-30T02:39:19.631Z,14.70
2023-04-30T02:40:21.325Z,13.15
2023-04-30T02:41:24.023Z,13.38
2023-04-30T02:42:25.831Z,15.35
2023-04-30T02:43:28.478Z,14.48
2023-04-30T02:44:30.281Z,12.77
2023-04-30T02:45:34.336Z,16.73
2023-04-30T02:46:36.051Z,16.73
2023-04-30T02:47:38.810Z,13.60
2023-04-30T02:48:40.516Z,15.57
2023-04-30T02:49:43.268Z,12.50
2023-04-30T02:50:45.071Z,13.35
2023-04-30T02:51:47.768Z,13.98
2023-04-30T02:52:49.451Z,13.70
2023-04-30T02:53:52.156Z,11.32
2023-04-30T02:54:53.797Z,11.43
2023-04-30T02:55:56.516Z,14.20
2023-04-30T02:56:58.202Z,15.68
2023-04-30T02:58:00.950Z,11.88
2023-04-30T02:59:02.701Z,13.95
2023-04-30T03:00:07.123Z,12.98
2023-04-30T03:01:10.220Z,11.82
2023-04-30T03:02:13.398Z,15.90
2023-04-30T03:03:15.247Z,11.90
2023-04-30T03:04:18.011Z,12.95
2023-04-30T03:05:19.736Z,13.07
2023-04-30T03:06:22.495Z,11.48
2023-04-30T03:07:25.284Z,14.57
2023-04-30T03:08:27.095Z,12.70
2023-04-30T03:09:30.970Z,15.55
2023-04-30T03:10:32.672Z,15.02
2023-04-30T03:11:37.473Z,15.40
2023-04-30T03:12:39.288Z,13.88
2023-04-30T03:13:42.165Z,19.10
2023-04-30T03:14:43.870Z,12.93
2023-04-30T03:15:46.566Z,13.88
2023-04-30T03:16:49.645Z,15.18
2023-04-30T03:17:52.452Z,17.20
2023-04-30T03:18:54.162Z,15.77
2023-04-30T03:19:56.990Z,16.40
2023-04-30T03:20:59.204Z,14.38
2023-04-30T03:22:01.913Z,13.50
2023-04-30T03:23:03.657Z,11.50
2023-04-30T03:24:06.797Z,16.48
2023-04-30T03:25:09.636Z,13.95
2023-04-30T03:26:12.333Z,14.45
2023-04-30T03:27:14.311Z,15.90
2023-04-30T03:28:17.337Z,16.02
2023-04-30T03:29:19.394Z,16.13
2023-04-30T03:30:22.437Z,14.82
2023-04-30T03:31:24.269Z,14.43
2023-04-30T03:32:28.374Z,12.40
2023-04-30T03:33:30.198Z,17.17
2023-04-30T03:34:32.894Z,17.10
2023-04-30T03:35:35.125Z,15.50
2023-04-30T03:36:37.959Z,16.13
2023-04-30T03:37:39.746Z,16.63
2023-04-30T03:38:42.891Z,14.13
2023-04-30T03:39:44.561Z,12.98
2023-04-30T03:40:47.373Z,15.23
2023-04-30T03:41:49.053Z,15.00
2023-04-30T03:42:51.793Z,13.20
2023-04-30T03:43:53.469Z,15.60
2023-04-30T03:44:56.163Z,13.10
2023-04-30T03:45:57.914Z,16.20
2023-04-30T03:47:00.604Z,15.75
2023-04-30T03:48:04.012Z,14.10
2023-04-30T03:49:06.725Z,12.73
2023-04-30T03:50:09.381Z,12.38
2023-04-30T03:51:12.068Z,15.07
2023-04-30T03:52:13.795Z,14.32
2023-04-30T03:53:16.588Z,13.45
2023-04-30T03:54:18.318Z,13.25
2023-04-30T03:55:21.064Z,14.00
2023-04-30T03:56:22.772Z,13.57
2023-04-30T03:57:25.428Z,13.50
2023-04-30T03:58:27.132Z,16.98
2023-04-30T03:59:29.803Z,14.77
2023-04-30T04:00:31.633Z,15.68
2023-04-30T04:01:34.401Z,16.45
2023-04-30T04:02:36.301Z,17.50
2023-04-30T04:03:40.441Z,14.10
2023-04-30T04:04:42.676Z,14.38
2023-04-30T04:05:46.116Z,14.10
2023-04-30T04:06:47.861Z,14.10
2023-04-30T04:07:50.528Z,11.82
2023-04-30T04:08:52.190Z,15.93
2023-04-30T04:09:55.158Z,14.25
2023-04-30T04:10:57.103Z,12.93
2023-04-30T04:11:59.716Z,10.68
2023-04-30T04:13:01.405Z,17.48
2023-04-30T04:14:04.049Z,15.82
2023-04-30T04:15:07.060Z,15.32
2023-04-30T04:16:09.809Z,12.95
2023-04-30T04:17:12.012Z,16.23
2023-04-30T04:18:14.666Z,12.88
2023-04-30T04:19:17.684Z,15.98
2023-04-30T04:20:20.353Z,15.95
2023-04-30T04:21:22.065Z,13.55
2023-04-30T04:22:24.976Z,13.35
2023-04-30T04:23:27.664Z,12.57
2023-04-30T04:24:29.411Z,14.05
2023-04-30T04:25:33.487Z,13.93
2023-04-30T04:26:36.215Z,15.52
2023-04-30T04:27:38.880Z,15.90
2023-04-30T04:28:41.063Z,15.57
2023-04-30T04:29:43.761Z,14.60
2023-04-30T04:30:46.816Z,13.77
2023-04-30T04:31:49.469Z,16.80
2023-04-30T04:32:54.928Z,15.48
2023-04-30T04:33:58.768Z,15.00
2023-04-30T04:35:02.870Z,12.20
2023-04-30T04:36:05.221Z,15.40
2023-04-30T04:37:08.461Z,14.40
2023-04-30T04:38:10.166Z,17.95
2023-04-30T04:39:13.401Z,17.25
2023-04-30T04:40:15.154Z,15.55
2023-04-30T04:41:18.179Z,14.18
2023-04-30T04:42:20.497Z,13.25
2023-04-30T04:43:23.224Z,14.63
2023-04-30T04:44:24.999Z,13.13
2023-04-30T04:45:27.917Z,17.05
2023-04-30T04:46:30.684Z,13.88
2023-04-30T04:47:33.914Z,14.18
2023-04-30T04:48:35.647Z,15.73
2023-04-30T04:49:38.382Z,12.82
2023-04-30T04:50:41.405Z,12.60
2023-04-30T04:51:44.149Z,12.63
2023-04-30T04:52:45.963Z,14.55
2023-04-30T04:53:48.916Z,18.33
2023-04-30T04:54:50.777Z,11.00
2023-04-30T04:55:53.465Z,13.95
2023-04-30T04:56:55.638Z,11.25
2023-04-30T04:57:58.420Z,15.57
2023-04-30T04:59:02.837Z,16.83
2023-04-30T05:00:08.078Z,12.57
2023-04-30T05:01:10.455Z,16.65
2023-04-30T05:02:13.105Z,17.73
2023-04-30T05:03:15.065Z,15.38
2023-04-30T05:04:17.857Z,15.70
2023-04-30T05:05:19.572Z,13.07
2023-04-30T05:06:24.351Z,15.95
2023-04-30T05:07:26.250Z,14.95
2023-04-30T05:08:28.951Z,12.10
2023-04-30T05:09:30.732Z,13.85
2023-04-30T05:10:34.963Z,13.73
2023-04-30T05:11:36.677Z,13.82
2023-04-30T05:12:39.354Z,14.95
2023-04-30T05:13:41.344Z,14.38
2023-04-30T05:14:44.853Z,17.08
2023-04-30T05:15:47.090Z,13.90
2023-04-30T05:16:49.876Z,13.82
2023-04-30T05:17:51.533Z,15.05
2023-04-30T05:18:54.178Z,13.40
2023-04-30T05:19:56.094Z,14.32
2023-04-30T05:20:59.079Z,11.95
2023-04-30T05:22:02.152Z,12.65
2023-04-30T05:23:04.904Z,15.52
2023-04-30T05:24:07.780Z,13.93
2023-04-30T05:25:10.043Z,15.05
2023-04-30T05:26:12.730Z,14.27
2023-04-30T05:27:14.392Z,16.50
2023-04-30T05:28:17.096Z,13.25
2023-04-30T05:29:19.859Z,14.75
2023-04-30T05:30:21.608Z,13.85
2023-04-30T05:31:24.398Z,17.75
2023-04-30T05:32:27.737Z,12.77
2023-04-30T05:33:30.430Z,15.30
2023-04-30T05:34:32.217Z,14.65
2023-04-30T05:35:36.182Z,14.07
2023-04-30T05:36:38.009Z,14.25
2023-04-30T05:37:42.084Z,13.18
2023-04-30T05:38:43.773Z,16.38
2023-04-30T05:39:46.514Z,13.95
2023-04-30T05:40:48.376Z,13.70
2023-04-30T05:41:52.815Z,12.40
2023-04-30T05:42:55.102Z,12.85
2023-04-30T05:43:57.754Z,15.90
2023-04-30T05:44:59.430Z,17.13
2023-04-30T05:46:02.119Z,15.00
2023-04-30T05:47:03.837Z,16.02
2023-04-30T05:48:06.873Z,12.23
2023-04-30T05:49:08.632Z,14.10
2023-04-30T05:50:11.656Z,11.27
2023-04-30T05:51:13.398Z,13.88
2023-04-30T05:52:17.558Z,14.18
2023-04-30T05:53:20.690Z,11.68
2023-04-30T05:54:23.439Z,17.30
2023-04-30T05:55:25.256Z,14.07
2023-04-30T05:56:27.975Z,17.15
2023-04-30T05:57:29.753Z,12.95
2023-04-30T05:58:32.782Z,12.15
2023-04-30T05:59:34.506Z,16.45
2023-04-30T06:00:37.265Z,12.90
2023-04-30T06:01:38.941Z,12.30
2023-04-30T06:02:41.816Z,12.05
2023-04-30T06:03:43.630Z,11.60
2023-04-30T06:04:46.380Z,13.93
2023-04-30T06:05:48.162Z,10.27
2023-04-30T06:06:51.008Z,16.20
2023-04-30T06:07:52.816Z,10.80
2023-04-30T06:08:56.896Z,12.48
2023-04-30T06:09:58.956Z,11.18
2023-04-30T06:11:03.695Z,14.38
2023-04-30T06:12:06.763Z,17.77
2023-04-30T06:13:08.437Z,18.30
2023-04-30T06:14:11.398Z,13.05
2023-04-30T06:15:13.152Z,13.32
2023-04-30T06:16:15.935Z,10.13
2023-04-30T06:17:18.644Z,11.95
2023-04-30T06:18:20.669Z,11.50
2023-04-30T06:19:23.353Z,11.38
2023-04-30T06:20:25.094Z,10.15
2023-04-30T06:21:27.836Z,12.65
2023-04-30T06:22:30.275Z,12.32
2023-04-30T06:23:33.066Z,11.27
2023-04-30T06:24:37.102Z,9.98
2023-04-30T06:25:39.419Z,11.30
2023-04-30T06:26:42.182Z,12.05
2023-04-30T06:27:44.887Z,13.90
2023-04-30T06:28:46.727Z,10.05
2023-04-30T06:29:49.566Z,9.85
2023-04-30T06:30:51.845Z,10.43
2023-04-30T06:31:54.735Z,9.30
2023-04-30T06:32:56.795Z,10.57
2023-04-30T06:33:59.618Z,11.32
2023-04-30T06:35:01.357Z,14.38
2023-04-30T06:36:04.326Z,11.98
2023-04-30T06:37:06.115Z,6.43
2023-04-30T06:38:08.787Z,16.27
2023-04-30T06:39:10.488Z,8.10
2023-04-30T06:40:14.689Z,8.75
2023-04-30T06:41:16.623Z,9.18
2023-04-30T06:42:19.364Z,11.30
2023-04-30T06:43:21.293Z,7.97
2023-04-30T06:44:24.131Z,6.65
2023-04-30T06:45:25.809Z,8.63
2023-04-30T06:46:28.493Z,9.10
2023-04-30T06:47:34.488Z,8.43
2023-04-30T06:48:37.242Z,7.50
2023-04-30T06:49:38.906Z,8.07
2023-04-30T06:50:44.970Z,7.53
2023-04-30T06:51:47.811Z,11.48
2023-04-30T06:52:50.550Z,6.30
2023-04-30T06:53:52.288Z,10.10
2023-04-30T06:54:54.975Z,8.25
2023-04-30T06:55:59.083Z,10.10
2023-04-30T06:57:01.971Z,9.05
2023-04-30T06:58:05.763Z,8.23
2023-04-30T06:59:07.703Z,7.53
2023-04-30T07:00:11.317Z,8.05
2023-04-30T07:01:13.016Z,10.85
2023-04-30T07:02:16.168Z,11.95
2023-04-30T07:03:18.073Z,8.73
2023-04-30T07:04:24.621Z,6.35
2023-04-30T07:05:26.316Z,8.98
2023-04-30T07:06:29.082Z,6.75
2023-04-30T07:07:31.360Z,7.22
2023-04-30T07:08:34.045Z,7.20
2023-04-30T07:09:36.444Z,11.13
2023-04-30T07:10:39.380Z,4.93
2023-04-30T07:11:42.767Z,7.82
2023-04-30T07:12:45.659Z,11.93
2023-04-30T07:13:47.398Z,8.52
2023-04-30T07:14:50.136Z,8.57
2023-04-30T07:15:52.937Z,8.30
2023-04-30T07:16:54.712Z,6.88
2023-04-30T07:17:57.385Z,5.88
2023-04-30T07:19:00.288Z,5.20
2023-04-30T07:20:02.033Z,6.18
2023-04-30T07:21:04.989Z,5.63
2023-04-30T07:22:06.683Z,6.20
2023-04-30T07:23:09.445Z,5.75
2023-04-30T07:24:11.149Z,6.47
2023-04-30T07:25:13.952Z,6.70
2023-04-30T07:26:15.920Z,6.30
2023-04-30T07:27:19.949Z,4.47
2023-04-30T07:28:22.830Z,8.02
2023-04-30T07:29:24.515Z,4.80
2023-04-30T07:30:27.284Z,7.13
2023-04-30T07:31:29.051Z,6.10
2023-04-30T07:32:31.804Z,6.90
2023-04-30T07:33:33.628Z,5.43
2023-04-30T07:34:36.339Z,4.80
2023-04-30T07:35:38.014Z,6.18
2023-04-30T07:36:40.731Z,5.43
2023-04-30T07:37:43.875Z,5.25
2023-04-30T07:38:46.611Z,4.43
2023-04-30T07:39:48.295Z,5.72
2023-04-30T07:40:53.988Z,6.85
2023-04-30T07:41:55.809Z,7.65
2023-04-30T07:42:59.862Z,6.90
2023-04-30T07:44:01.585Z,8.50
2023-04-30T07:45:04.617Z,6.18
2023-04-30T07:46:07.371Z,4.80
2023-04-30T07:47:09.890Z,7.68
2023-04-30T07:48:12.576Z,5.72
2023-04-30T07:49:15.790Z,4.80
2023-04-30T07:50:18.758Z,5.25
2023-04-30T07:51:21.447Z,4.80
2023-04-30T07:52:23.157Z,9.52
2023-04-30T07:53:25.961Z,4.32
2023-04-30T07:54:28.720Z,6.93
2023-04-30T07:55:31.056Z,6.55
2023-04-30T07:56:33.791Z,4.72
2023-04-30T07:57:35.454Z,4.75
2023-04-30T07:58:39.870Z,4.80
2023-04-30T07:59:42.539Z,6.70
2023-04-30T08:00:44.261Z,4.15
2023-04-30T08:01:46.970Z,5.10
2023-04-30T08:02:50.477Z,5.43
2023-04-30T08:03:52.784Z,5.43
2023-04-30T08:04:55.602Z,4.82
2023-04-30T08:05:57.304Z,3.58
2023-04-30T08:07:00.053Z,5.05
2023-04-30T08:08:02.028Z,4.40
2023-04-30T08:09:05.038Z,5.65
2023-04-30T08:10:07.922Z,3.85
2023-04-30T08:11:11.781Z,4.97
2023-04-30T08:12:13.491Z,4.85
2023-04-30T08:13:16.451Z,5.80
2023-04-30T08:14:21.323Z,7.28
2023-04-30T08:15:24.068Z,4.95
2023-04-30T08:16:25.913Z,3.78
2023-04-30T08:17:28.849Z,4.60
2023-04-30T08:18:32.205Z,3.88
2023-04-30T08:19:34.972Z,5.78
2023-04-30T08:20:38.529Z,4.95
2023-04-30T08:21:41.870Z,3.30
2023-04-30T08:22:43.936Z,4.90
2023-04-30T08:23:46.906Z,3.53
2023-04-30T08:24:49.852Z,4.00
2023-04-30T08:25:51.836Z,2.95
2023-04-30T08:26:56.084Z,6.55
2023-04-30T08:28:02.943Z,3.78
2023-04-30T08:29:05.174Z,2.63
2023-04-30T08:30:10.043Z,3.55
2023-04-30T08:31:12.422Z,4.93
2023-04-30T08:32:15.268Z,5.25
2023-04-30T08:33:17.133Z,2.42
2023-04-30T08:34:19.959Z,4.32
2023-04-30T08:35:21.941Z,1.95
2023-04-30T08:36:24.767Z,3.50
2023-04-30T08:37:26.496Z,2.45
2023-04-30T08:38:29.676Z,2.40
2023-04-30T08:39:31.432Z,3.75
2023-04-30T08:40:50.389Z,2.20
2023-04-30T08:41:57.167Z,2.90
2023-04-30T08:43:05.723Z,2.92
2023-04-30T08:44:08.738Z,2.50
2023-04-30T08:45:12.973Z,2.00
2023-04-30T08:46:16.939Z,2.28
2023-04-30T08:47:19.987Z,4.85
2023-04-30T08:48:24.936Z,3.20
2023-04-30T08:49:28.175Z,2.97
2023-04-30T08:50:31.103Z,1.98
2023-04-30T08:51:35.418Z,2.55
2023-04-30T08:52:38.579Z,3.28
2023-04-30T08:53:41.574Z,3.22
2023-04-30T08:54:44.702Z,3.20
2023-04-30T08:55:48.154Z,3.30
2023-04-30T08:56:50.275Z,2.30
2023-04-30T08:57:53.078Z,3.13
2023-04-30T08:58:55.786Z,3.83
2023-04-30T08:59:57.656Z,1.55
2023-04-30T09:01:02.629Z,2.42
2023-04-30T09:02:05.252Z,2.33
2023-04-30T09:03:09.097Z,1.38
2023-04-30T09:04:11.730Z,1.27
2023-04-30T09:05:15.893Z,1.20
2023-04-30T09:06:17.768Z,1.92
2023-04-30T09:07:23.612Z,4.25
2023-04-30T09:08:44.307Z,2.58
2023-04-30T09:09:47.105Z,1.58
2023-04-30T09:10:48.873Z,2.25
2023-04-30T09:11:51.778Z,1.55
2023-04-30T09:13:00.539Z,2.00
2023-04-30T09:14:03.433Z,3.70
2023-04-30T09:15:06.458Z,2.70
2023-04-30T09:16:10.631Z,1.50
2023-04-30T09:17:22.810Z,3.97
2023-04-30T09:18:25.646Z,1.38
2023-04-30T09:19:29.523Z,3.00
2023-04-30T09:20:32.297Z,1.33
2023-04-30T09:21:35.854Z,1.98
2023-04-30T09:22:38.803Z,1.63
2023-04-30T09:23:56.909Z,2.63
2023-04-30T09:24:59.641Z,2.28
2023-04-30T09:26:01.483Z,3.28
2023-04-30T09:27:17.078Z,2.33
2023-04-30T09:28:23.731Z,1.90
2023-04-30T09:29:37.532Z,0.95
2023-04-30T09:30:39.867Z,3.92
2023-04-30T09:31:47.201Z,1.13
2023-04-30T09:32:56.303Z,1.77
2023-04-30T09:33:58.343Z,1.48
2023-04-30T09:35:01.055Z,2.13
2023-04-30T09:36:09.244Z,1.42
2023-04-30T09:37:15.961Z,2.47
2023-04-30T09:38:28.328Z,1.90
2023-04-30T09:39:31.410Z,1.98
2023-04-30T09:40:35.460Z,2.65
2023-04-30T09:41:38.224Z,1.13
2023-04-30T09:42:40.126Z,1.48
2023-04-30T09:43:47.813Z,1.75
2023-04-30T09:44:50.653Z,1.13
2023-04-30T09:45:52.903Z,2.10
2023-04-30T09:46:57.637Z,1.58
2023-04-30T09:48:09.210Z,1.27
2023-04-30T09:49:20.785Z,2.20
2023-04-30T09:50:27.467Z,1.50
2023-04-30T09:51:31.734Z,1.25
2023-04-30T09:52:34.503Z,3.42
2023-04-30T09:53:38.008Z,3.17
2023-04-30T09:54:41.462Z,2.50
2023-04-30T09:55:45.639Z,1.73
2023-04-30T09:56:48.553Z,1.60
2023-04-30T09:57:50.442Z,1.25
2023-04-30T09:58:54.415Z,1.23
2023-04-30T09:59:58.253Z,1.42
2023-04-30T10:01:03.943Z,2.83
2023-04-30T10:02:08.916Z,3.03
2023-04-30T10:03:12.162Z,2.33
2023-04-30T10:04:15.098Z,3.92
2023-04-30T10:05:17.307Z,0.85
2023-04-30T10:06:22.558Z,0.93
2023-04-30T10:07:26.520Z,1.90
2023-04-30T10:08:30.845Z,0.90
2023-04-30T10:09:38.961Z,7.82
2023-04-30T10:10:41.534Z,1.48
2023-04-30T10:11:45.528Z,1.00
2023-04-30T10:12:50.584Z,5.65
2023-04-30T10:13:56.262Z,1.63
2023-04-30T10:15:02.113Z,1.10
2023-04-30T10:16:09.773Z,0.95
2023-04-30T10:17:15.919Z,1.70
2023-04-30T10:18:24.915Z,1.63
2023-04-30T10:19:30.316Z,1.85
2023-04-30T10:20:36.847Z,1.27
2023-04-30T10:21:40.532Z,3.13
2023-04-30T10:22:44.390Z,0.90
2023-04-30T10:23:46.565Z,2.63
2023-04-30T10:24:49.762Z,1.67
2023-04-30T10:25:51.547Z,1.40
2023-04-30T10:26:54.608Z,1.20
2023-04-30T10:27:57.174Z,1.50
2023-04-30T10:29:02.030Z,1.10
2023-04-30T10:30:04.197Z,1.30
2023-04-30T10:31:08.410Z,2.08
2023-04-30T10:32:14.657Z,4.35
2023-04-30T10:33:19.857Z,1.65
2023-04-30T10:34:29.895Z,2.85
2023-04-30T10:35:35.701Z,2.38
2023-04-30T10:36:42.054Z,0.90
2023-04-30T10:37:48.499Z,0.70
2023-04-30T10:38:50.791Z,1.85
2023-04-30T10:39:53.866Z,0.85
2023-04-30T10:40:57.320Z,3.33
2023-04-30T10:42:04.162Z,1.42
2023-04-30T10:43:06.312Z,1.02
2023-04-30T10:44:09.085Z,1.75
2023-04-30T10:45:11.195Z,4.50
2023-04-30T10:46:23.223Z,2.78
2023-04-30T10:47:31.295Z,2.00
2023-04-30T10:48:34.920Z,1.83
2023-04-30T10:49:37.747Z,2.72
2023-04-30T10:50:45.728Z,2.20
2023-04-30T10:51:51.673Z,4.28
2023-04-30T10:53:03.646Z,1.55
2023-04-30T10:54:05.592Z,2.53
2023-04-30T10:55:09.788Z,5.18
2023-04-30T10:56:11.877Z,5.47
2023-04-30T10:57:17.604Z,1.08
2023-04-30T10:58:24.444Z,1.20
2023-04-30T10:59:29.626Z,21.10
2023-04-30T11:00:32.334Z,12.00
2023-04-30T11:01:58.269Z,42.55
2023-04-30T11:03:05.359Z,24.25
2023-04-30T11:04:09.726Z,35.97
2023-04-30T11:05:13.361Z,15.75
2023-04-30T11:06:19.589Z,12.52
2023-04-30T11:07:25.930Z,10.88
2023-04-30T11:08:35.501Z,1.17
2023-04-30T11:09:41.509Z,1.05
2023-04-30T11:10:58.741Z,4.60
2023-04-30T11:12:03.080Z,3.33
2023-04-30T11:13:07.675Z,2.47
2023-04-30T11:14:11.750Z,2.75
2023-04-30T11:15:16.454Z,2.60
2023-04-30T11:16:20.130Z,2.47
2023-04-30T11:17:24.162Z,4.82
2023-04-30T11:18:29.655Z,2.30
2023-04-30T11:19:34.643Z,3.03
2023-04-30T11:20:41.827Z,2.33
2023-04-30T11:22:22.057Z,2.15
2023-04-30T11:23:38.504Z,4.32
2023-04-30T11:24:56.794Z,2.08
2023-04-30T11:26:02.165Z,1.45
2023-04-30T11:27:04.673Z,1.55
2023-04-30T11:28:13.851Z,0.90
2023-04-30T11:29:16.874Z,0.85
2023-04-30T11:30:20.566Z,1.33
2023-04-30T11:31:23.074Z,1.20
2023-04-30T11:32:27.142Z,2.20
2023-04-30T11:33:32.825Z,1.15
2023-04-30T11:34:34.893Z,3.55
2023-04-30T11:35:38.058Z,1.20
2023-04-30T11:36:41.538Z,2.78
2023-04-30T11:37:45.479Z,1.70
2023-04-30T11:38:48.676Z,3.45
2023-04-30T11:39:50.661Z,1.15
2023-04-30T11:40:54.280Z,0.80
2023-04-30T11:41:56.111Z,1.17
2023-04-30T11:42:58.857Z,2.17
2023-04-30T11:44:00.608Z,0.93
2023-04-30T11:45:08.357Z,0.82
2023-04-30T11:46:11.434Z,1.10
2023-04-30T11:47:15.001Z,1.85
2023-04-30T11:48:17.791Z,0.88
2023-04-30T11:49:22.050Z,1.08
2023-04-30T11:50:29.176Z,1.15
2023-04-30T11:51:31.159Z,1.00
2023-04-30T11:52:33.941Z,5.20
2023-04-30T11:53:36.769Z,0.77
2023-04-30T11:54:38.829Z,0.68
2023-04-30T11:55:42.791Z,1.60
2023-04-30T11:56:48.405Z,1.10
2023-04-30T11:57:53.144Z,1.15
2023-04-30T11:58:55.913Z,2.08
2023-04-30T12:00:10.011Z,0.73
2023-04-30T12:01:12.898Z,0.90
2023-04-30T12:02:15.744Z,1.10
2023-04-30T12:03:18.727Z,1.30
2023-04-30T12:04:23.216Z,0.60
2023-04-30T12:05:26.657Z,2.58
2023-04-30T12:06:31.413Z,2.58
2023-04-30T12:07:34.465Z,1.55
2023-04-30T12:08:37.778Z,1.60
2023-04-30T12:09:52.965Z,1.08
2023-04-30T12:10:55.941Z,2.95
2023-04-30T12:11:58.300Z,0.80
2023-04-30T12:13:01.059Z,3.63
2023-04-30T12:14:05.094Z,0.50
2023-04-30T12:15:17.797Z,0.70
2023-04-30T12:16:20.063Z,3.13
2023-04-30T12:17:33.902Z,2.67
2023-04-30T12:18:40.158Z,1.63
2023-04-30T12:19:45.593Z,1.17
2023-04-30T12:20:48.532Z,0.65
2023-04-30T12:21:50.392Z,0.82
2023-04-30T12:22:53.548Z,1.05
2023-04-30T12:23:55.362Z,1.27
2023-04-30T12:25:00.313Z,5.68
2023-04-30T12:26:02.352Z,1.73
2023-04-30T12:27:06.045Z,0.30
2023-04-30T12:28:08.893Z,0.50
2023-04-30T12:29:14.333Z,1.00
2023-04-30T12:30:24.964Z,1.00
2023-04-30T12:31:27.489Z,1.48
2023-04-30T12:32:30.455Z,0.50
2023-04-30T12:33:33.668Z,0.88
2023-04-30T12:34:39.248Z,0.95
2023-04-30T12:35:44.809Z,0.82
2023-04-30T12:36:46.659Z,0.90
2023-04-30T12:37:51.331Z,0.65
2023-04-30T12:39:02.923Z,0.98
2023-04-30T12:40:10.090Z,1.38
2023-04-30T12:41:15.371Z,0.73
2023-04-30T12:42:22.050Z,0.80
2023-04-30T12:43:24.950Z,0.50
2023-04-30T12:44:27.777Z,0.50
2023-04-30T12:45:52.293Z,0.35
2023-04-30T12:46:57.315Z,0.47
2023-04-30T12:47:59.181Z,0.65
2023-04-30T12:49:01.958Z,0.50
2023-04-30T12:50:05.245Z,0.82
2023-04-30T12:51:10.062Z,0.90
2023-04-30T12:52:14.067Z,1.15
2023-04-30T12:53:15.814Z,0.80
2023-04-30T12:54:26.817Z,1.08
2023-04-30T12:55:31.141Z,1.02
2023-04-30T12:56:32.897Z,1.50
2023-04-30T12:57:36.188Z,0.95
2023-04-30T12:58:38.985Z,0.40
2023-04-30T12:59:58.355Z,0.93
2023-04-30T13:01:01.725Z,0.75
2023-04-30T13:02:10.540Z,2.30
2023-04-30T13:03:13.591Z,0.40
2023-04-30T13:04:17.322Z,0.43
2023-04-30T13:05:19.098Z,2.70
2023-04-30T13:06:23.860Z,1.23
2023-04-30T13:07:28.704Z,1.65
2023-04-30T13:08:33.890Z,1.20
2023-04-30T13:09:41.407Z,0.30
2023-04-30T13:10:44.090Z,0.90
2023-04-30T13:11:45.826Z,3.83
2023-04-30T13:12:49.173Z,1.88
2023-04-30T13:13:51.833Z,0.50
2023-04-30T13:14:53.532Z,1.42
2023-04-30T13:15:56.485Z,0.40
2023-04-30T13:16:58.718Z,0.40
2023-04-30T13:18:01.395Z,0.63
2023-04-30T13:19:05.096Z,1.85
2023-04-30T13:20:09.573Z,0.63
2023-04-30T13:21:11.462Z,0.40
2023-04-30T13:22:15.563Z,0.40
2023-04-30T13:23:17.403Z,0.38
2023-04-30T13:24:20.078Z,0.40
2023-04-30T13:25:22.170Z,0.50
2023-04-30T13:26:26.429Z,1.63
2023-04-30T13:27:28.073Z,0.50
2023-04-30T13:28:30.706Z,0.30
2023-04-30T13:29:33.359Z,0.57
2023-04-30T13:30:35.229Z,0.35
2023-04-30T13:31:38.024Z,0.55
2023-04-30T13:32:39.975Z,1.05
2023-04-30T13:33:42.746Z,0.32
2023-04-30T13:34:45.827Z,0.60
2023-04-30T13:35:48.403Z,0.28
2023-04-30T13:36:52.054Z,0.35
2023-04-30T13:37:55.367Z,0.30
2023-04-30T13:38:58.341Z,0.45
2023-04-30T13:40:01.522Z,1.15
2023-04-30T13:41:04.211Z,0.63
2023-04-30T13:42:06.008Z,0.40
2023-04-30T13:43:08.904Z,0.28
2023-04-30T13:44:10.648Z,0.40
2023-04-30T13:45:13.747Z,0.25
2023-04-30T13:46:15.642Z,0.55
2023-04-30T13:47:18.574Z,0.35
2023-04-30T13:48:20.267Z,0.30
2023-04-30T13:49:22.961Z,0.20
2023-04-30T13:50:25.901Z,1.48
2023-04-30T13:51:27.888Z,4.15
2023-04-30T13:52:30.696Z,0.30
2023-04-30T13:53:33.841Z,0.30
2023-04-30T13:54:37.492Z,0.43
2023-04-30T13:55:40.185Z,0.47
2023-04-30T13:56:41.894Z,0.13